createdAt,value
2023-05-14T00:02:28.373Z,101062.00
2023-05-14T00:05:10.329Z,101019.34
2023-05-14T00:07:37.218Z,101036.97
2023-05-14T00:10:04.805Z,101025.25
2023-05-14T00:12:32.214Z,101070.06
2023-05-14T00:15:19.200Z,100987.50
2023-05-14T00:18:06.214Z,101031.47
2023-05-14T00:20:33.208Z,101064.66
2023-05-14T00:23:00.141Z,101054.25
2023-05-14T00:25:27.150Z,100998.94
2023-05-14T00:27:54.011Z,100858.56
2023-05-14T00:30:22.223Z,100986.88
2023-05-14T00:32:49.555Z,100864.34
2023-05-14T00:35:16.533Z,101007.50
2023-05-14T00:37:43.443Z,100912.16
2023-05-14T00:40:14.178Z,100903.53
2023-05-14T00:42:41.235Z,101024.75
2023-05-14T00:45:09.415Z,101036.09
2023-05-14T00:47:37.196Z,101027.19
2023-05-14T00:50:05.065Z,100983.50
2023-05-14T00:52:32.273Z,101020.19
2023-05-14T00:55:13.188Z,101019.50
2023-05-14T00:58:14.218Z,101033.53
2023-05-14T01:01:02.250Z,100994.38
2023-05-14T01:04:04.281Z,100980.84
2023-05-14T01:07:12.598Z,101022.81
2023-05-14T01:10:02.216Z,100953.13
2023-05-14T01:13:06.253Z,101011.91
2023-05-14T01:15:48.190Z,101012.78
2023-05-14T01:18:19.601Z,101002.44
2023-05-14T01:20:49.857Z,100969.56
2023-05-14T01:23:16.750Z,100950.34
2023-05-14T01:25:43.916Z,100994.53
2023-05-14T01:28:20.344Z,100998.06
2023-05-14T01:31:12.235Z,100995.38
2023-05-14T01:33:42.406Z,101007.34
2023-05-14T01:36:10.107Z,100880.44
2023-05-14T01:38:38.583Z,100986.84
2023-05-14T01:41:06.572Z,100979.66
2023-05-14T01:43:36.590Z,100998.84
2023-05-14T01:46:05.314Z,100939.09
2023-05-14T01:48:32.300Z,100973.41
2023-05-14T01:50:59.377Z,100984.09
2023-05-14T01:53:26.515Z,100969.34
2023-05-14T01:56:13.480Z,100775.25
2023-05-14T01:58:55.933Z,100957.88
2023-05-14T02:01:43.327Z,100970.47
2023-05-14T02:04:24.688Z,100951.78
2023-05-14T02:07:12.252Z,100914.19
2023-05-14T02:10:13.294Z,100956.16
2023-05-14T02:12:56.799Z,100936.41
2023-05-14T02:15:24.574Z,100957.28
2023-05-14T02:17:52.699Z,100951.16
2023-05-14T02:20:19.893Z,100940.78
2023-05-14T02:22:47.401Z,100883.44
2023-05-14T02:25:14.408Z,100886.06
2023-05-14T02:27:41.389Z,100908.41
2023-05-14T02:30:09.677Z,100931.25
2023-05-14T02:32:37.238Z,100953.47
2023-05-14T02:35:05.445Z,100944.03
2023-05-14T02:37:34.797Z,100932.97
2023-05-14T02:40:02.051Z,100907.09
2023-05-14T02:42:28.999Z,100864.28
2023-05-14T02:44:56.625Z,100902.63
2023-05-14T02:47:24.608Z,100888.06
2023-05-14T02:49:51.564Z,100878.38
2023-05-14T02:52:18.877Z,100903.53
2023-05-14T02:54:46.093Z,100918.13
2023-05-14T02:57:33.549Z,100895.91
2023-05-14T03:00:34.709Z,100918.38
2023-05-14T03:03:36.330Z,100925.91
2023-05-14T03:06:17.158Z,100892.78
2023-05-14T03:08:44.261Z,100823.69
2023-05-14T03:11:11.503Z,100851.41
2023-05-14T03:13:38.370Z,100877.38
2023-05-14T03:16:06.487Z,100908.72
2023-05-14T03:18:34.860Z,100778.16
2023-05-14T03:21:02.277Z,100718.94
2023-05-14T03:23:29.474Z,100891.25
2023-05-14T03:25:56.799Z,100847.28
2023-05-14T03:28:25.022Z,100862.31
2023-05-14T03:30:53.265Z,100862.63
2023-05-14T03:33:21.355Z,100861.53
2023-05-14T03:35:48.534Z,100871.75
2023-05-14T03:38:16.518Z,100904.59
2023-05-14T03:40:46.949Z,100840.94
2023-05-14T03:43:14.073Z,100797.91
2023-05-14T03:45:43.189Z,100859.41
2023-05-14T03:48:10.289Z,100894.47
2023-05-14T03:50:38.053Z,100895.31
2023-05-14T03:53:06.481Z,100767.66
2023-05-14T03:55:53.364Z,100843.47
2023-05-14T03:58:55.417Z,100859.00
2023-05-14T04:01:57.753Z,100868.78
2023-05-14T04:04:58.382Z,100889.22
2023-05-14T04:07:38.832Z,100749.19
2023-05-14T04:10:06.410Z,100853.78
2023-05-14T04:12:35.944Z,100818.75
2023-05-14T04:15:04.234Z,100793.50
2023-05-14T04:17:33.053Z,100885.34
2023-05-14T04:20:01.512Z,100798.84
2023-05-14T04:22:30.265Z,100701.78
2023-05-14T04:24:57.141Z,100696.44
2023-05-14T04:27:24.018Z,100861.09
2023-05-14T04:29:51.997Z,100875.59
2023-05-14T04:32:20.858Z,100867.06
2023-05-14T04:34:48.129Z,100878.22
2023-05-14T04:37:16.743Z,100760.69
2023-05-14T04:39:44.745Z,100815.88
2023-05-14T04:42:11.685Z,100780.00
2023-05-14T04:44:38.674Z,100743.94
2023-05-14T04:47:25.563Z,100870.25
2023-05-14T04:50:07.383Z,100839.00
2023-05-14T04:52:35.013Z,100726.50
2023-05-14T04:55:22.330Z,100839.41
2023-05-14T04:58:23.358Z,100842.84
2023-05-14T05:01:24.445Z,100813.53
2023-05-14T05:04:25.350Z,100799.09
2023-05-14T05:07:06.761Z,100835.84
2023-05-14T05:09:34.352Z,100887.38
2023-05-14T05:12:02.040Z,100825.06
2023-05-14T05:14:29.531Z,100815.06
2023-05-14T05:16:57.433Z,100823.59
2023-05-14T05:19:35.676Z,100878.72
2023-05-14T05:22:07.090Z,100767.91
2023-05-14T05:24:34.133Z,100866.72
2023-05-14T05:27:01.483Z,100867.91
2023-05-14T05:29:28.971Z,100899.50
2023-05-14T05:31:56.997Z,100847.91
2023-05-14T05:34:24.906Z,100884.50
2023-05-14T05:36:52.151Z,100852.53
2023-05-14T05:39:19.162Z,100818.09
2023-05-14T05:41:46.927Z,100849.72
2023-05-14T05:44:13.830Z,100873.09
2023-05-14T05:46:41.349Z,100833.78
2023-05-14T05:49:08.423Z,100875.13
2023-05-14T05:51:36.148Z,100890.47
2023-05-14T05:54:03.553Z,100860.63
2023-05-14T05:56:50.636Z,100877.31
2023-05-14T05:59:51.406Z,100862.38
2023-05-14T06:02:53.142Z,100861.72
2023-05-14T06:05:47.925Z,100849.78
2023-05-14T06:08:28.847Z,100856.66
2023-05-14T06:10:56.637Z,100844.66
2023-05-14T06:13:23.737Z,100817.75
2023-05-14T06:15:50.827Z,100866.69
2023-05-14T06:18:17.799Z,100783.09
2023-05-14T06:21:06.420Z,100874.38
2023-05-14T06:23:47.412Z,100848.13
2023-05-14T06:26:14.617Z,100817.09
2023-05-14T06:28:41.555Z,100710.78
2023-05-14T06:31:08.552Z,100738.47
2023-05-14T06:33:35.535Z,100753.63
2023-05-14T06:36:05.295Z,100895.25
2023-05-14T06:38:32.753Z,100864.53
2023-05-14T06:40:59.652Z,100849.84
2023-05-14T06:43:26.684Z,100822.25
2023-05-14T06:45:53.899Z,100903.59
2023-05-14T06:48:21.493Z,100906.94
2023-05-14T06:50:49.767Z,100903.72
2023-05-14T06:53:16.972Z,100874.03
2023-05-14T06:56:04.409Z,100889.16
2023-05-14T06:58:45.074Z,100913.38
2023-05-14T07:01:25.481Z,100901.69
2023-05-14T07:04:06.104Z,100850.28
2023-05-14T07:06:33.029Z,100871.41
2023-05-14T07:09:01.880Z,100912.94
2023-05-14T07:11:29.155Z,100760.56
2023-05-14T07:13:56.018Z,100865.34
2023-05-14T07:16:22.985Z,100787.31
2023-05-14T07:18:49.953Z,100862.03
2023-05-14T07:21:16.910Z,100839.41
2023-05-14T07:23:43.821Z,100852.69
2023-05-14T07:26:31.524Z,100856.16
2023-05-14T07:29:32.400Z,100841.13
2023-05-14T07:32:14.785Z,100873.50
2023-05-14T07:34:42.846Z,100756.97
2023-05-14T07:37:09.907Z,100882.09
2023-05-14T07:39:36.798Z,100620.41
2023-05-14T07:42:05.000Z,100890.88
2023-05-14T07:44:32.085Z,100858.56
2023-05-14T07:46:58.978Z,100883.72
2023-05-14T07:49:25.979Z,100886.97
2023-05-14T07:51:52.836Z,100821.25
2023-05-14T07:54:19.814Z,100833.34
2023-05-14T07:57:06.460Z,100879.88
2023-05-14T08:00:00.623Z,100842.41
2023-05-14T08:02:50.627Z,100838.44
2023-05-14T08:05:18.256Z,100843.66
2023-05-14T08:07:45.118Z,100838.66
2023-05-14T08:10:12.280Z,100778.63
2023-05-14T08:12:39.273Z,100815.56
2023-05-14T08:15:07.862Z,100856.28
2023-05-14T08:17:34.998Z,100701.63
2023-05-14T08:20:22.732Z,100821.03
2023-05-14T08:23:03.229Z,100759.44
2023-05-14T08:25:30.244Z,100792.09
2023-05-14T08:27:57.299Z,100845.44
2023-05-14T08:30:24.543Z,100845.56
2023-05-14T08:32:51.793Z,100854.44
2023-05-14T08:35:19.162Z,100817.28
2023-05-14T08:37:46.346Z,100840.88
2023-05-14T08:40:13.514Z,100798.53
2023-05-14T08:42:45.148Z,100709.47
2023-05-14T08:45:15.375Z,100829.56
2023-05-14T08:47:44.126Z,100784.63
2023-05-14T08:50:11.612Z,100819.13
2023-05-14T08:52:39.705Z,100835.13
2023-05-14T08:55:19.618Z,100795.53
2023-05-14T08:58:13.557Z,100769.91
2023-05-14T09:01:14.606Z,100763.66
2023-05-14T09:04:16.594Z,100726.66
2023-05-14T09:06:57.239Z,100804.38
2023-05-14T09:09:24.117Z,100798.16
2023-05-14T09:11:53.042Z,100753.91
2023-05-14T09:14:40.504Z,100804.34
2023-05-14T09:17:21.347Z,100753.16
2023-05-14T09:19:49.393Z,100762.84
2023-05-14T09:22:18.269Z,100801.72
2023-05-14T09:24:46.014Z,100804.34
2023-05-14T09:27:22.356Z,100708.03
2023-05-14T09:29:49.464Z,100676.16
2023-05-14T09:32:16.395Z,100765.88
2023-05-14T09:34:43.465Z,100792.09
2023-05-14T09:37:10.610Z,100807.09
2023-05-14T09:39:38.974Z,100696.66
2023-05-14T09:42:06.199Z,100769.81
2023-05-14T09:44:33.223Z,100783.63
2023-05-14T09:47:00.422Z,100735.09
2023-05-14T09:49:28.486Z,100742.53
2023-05-14T09:51:57.455Z,100787.72
2023-05-14T09:54:27.468Z,100778.63
2023-05-14T09:57:14.555Z,100735.56
2023-05-14T10:00:16.281Z,100774.16
2023-05-14T10:03:21.535Z,100762.50
2023-05-14T10:06:06.923Z,100769.84
2023-05-14T10:08:36.313Z,100730.44
2023-05-14T10:11:13.504Z,100679.16
2023-05-14T10:13:59.561Z,100754.91
2023-05-14T10:17:03.606Z,100747.91
2023-05-14T10:20:09.682Z,100524.72
2023-05-14T10:23:02.536Z,100730.13
2023-05-14T10:25:43.778Z,100729.22
2023-05-14T10:28:11.714Z,100725.03
2023-05-14T10:30:46.442Z,100618.25
2023-05-14T10:33:18.826Z,100746.59
2023-05-14T10:35:53.028Z,100714.75
2023-05-14T10:38:23.327Z,100699.91
2023-05-14T10:40:52.775Z,100700.75
2023-05-14T10:43:22.616Z,100617.91
2023-05-14T10:45:49.704Z,100727.03
2023-05-14T10:48:17.322Z,100693.72
2023-05-14T10:50:44.313Z,100734.88
2023-05-14T10:53:13.649Z,100724.03
2023-05-14T10:56:00.898Z,100650.28
2023-05-14T10:58:46.014Z,100721.06
2023-05-14T11:01:38.667Z,100718.00
2023-05-14T11:04:19.844Z,100685.34
2023-05-14T11:06:48.203Z,100710.72
2023-05-14T11:09:35.596Z,100712.47
2023-05-14T11:12:36.609Z,100708.56
2023-05-14T11:15:20.491Z,100674.84
2023-05-14T11:17:48.947Z,100713.31
2023-05-14T11:20:17.324Z,100714.28
2023-05-14T11:23:04.745Z,100635.09
2023-05-14T11:25:45.187Z,100629.94
2023-05-14T11:28:12.343Z,100687.22
2023-05-14T11:30:39.596Z,100585.81
2023-05-14T11:33:06.697Z,100687.97
2023-05-14T11:35:33.726Z,100674.50
2023-05-14T11:38:00.728Z,100684.41
2023-05-14T11:40:27.935Z,100648.97
2023-05-14T11:42:55.340Z,100680.34
2023-05-14T11:45:27.785Z,100645.00
2023-05-14T11:47:55.216Z,100651.00
2023-05-14T11:50:23.413Z,100611.38
2023-05-14T11:52:51.162Z,100520.41
2023-05-14T11:55:38.603Z,100602.00
2023-05-14T11:58:40.428Z,100659.84
2023-05-14T12:01:41.615Z,100635.44
2023-05-14T12:04:42.706Z,100651.13
2023-05-14T12:07:43.933Z,100621.72
2023-05-14T12:10:42.172Z,100641.88
2023-05-14T12:13:09.679Z,100645.16
2023-05-14T12:15:36.766Z,100652.19
2023-05-14T12:18:22.984Z,100647.41
2023-05-14T12:20:52.763Z,100596.16
2023-05-14T12:23:28.252Z,100603.31
2023-05-14T12:25:55.506Z,100426.78
2023-05-14T12:28:23.384Z,100634.38
2023-05-14T12:30:57.446Z,100625.38
2023-05-14T12:33:26.793Z,100610.41
2023-05-14T12:35:54.662Z,100604.84
2023-05-14T12:38:21.574Z,100541.47
2023-05-14T12:41:09.075Z,100617.41
2023-05-14T12:44:09.701Z,100597.25
2023-05-14T12:46:50.445Z,100575.56
2023-05-14T12:49:17.529Z,100510.34
2023-05-14T12:51:44.658Z,100628.25
2023-05-14T12:54:11.533Z,100453.28
2023-05-14T12:56:39.834Z,100577.41
2023-05-14T12:59:27.130Z,100435.94
2023-05-14T13:02:28.596Z,100568.34
2023-05-14T13:05:12.895Z,100583.28
2023-05-14T13:07:40.173Z,100595.72
2023-05-14T13:10:08.345Z,100551.66
2023-05-14T13:12:36.373Z,100610.75
2023-05-14T13:15:03.418Z,100499.75
2023-05-14T13:17:32.761Z,100598.50
2023-05-14T13:19:59.766Z,100572.91
2023-05-14T13:22:26.754Z,100528.97
2023-05-14T13:24:53.647Z,100597.72
2023-05-14T13:27:21.326Z,100535.16
2023-05-14T13:29:48.174Z,100602.22
2023-05-14T13:32:15.115Z,100588.97
2023-05-14T13:34:42.740Z,100462.88
2023-05-14T13:37:09.866Z,100560.75
2023-05-14T13:39:36.861Z,100442.56
2023-05-14T13:42:23.815Z,100565.16
2023-05-14T13:45:24.829Z,100574.84
2023-05-14T13:48:05.750Z,100574.84
2023-05-14T13:50:32.768Z,100533.34
2023-05-14T13:53:00.468Z,100583.63
2023-05-14T13:55:49.166Z,100523.53
2023-05-14T13:58:50.658Z,100563.31
2023-05-14T14:01:51.848Z,100590.56
2023-05-14T14:04:32.339Z,100436.13
2023-05-14T14:07:20.096Z,100570.34
2023-05-14T14:10:02.116Z,100512.88
2023-05-14T14:12:29.620Z,100542.00
2023-05-14T14:14:57.276Z,100496.13
2023-05-14T14:17:24.715Z,100544.75
2023-05-14T14:19:51.712Z,100446.00
2023-05-14T14:22:19.160Z,100547.41
2023-05-14T14:24:46.689Z,100394.03
2023-05-14T14:27:14.186Z,100491.91
2023-05-14T14:30:03.718Z,100533.34
2023-05-14T14:32:45.215Z,100496.22
2023-05-14T14:35:14.711Z,100391.31
2023-05-14T14:37:43.549Z,100471.56
2023-05-14T14:40:30.718Z,100489.19
2023-05-14T14:43:31.993Z,100483.91
2023-05-14T14:46:25.990Z,100496.22
2023-05-14T14:49:12.919Z,100521.03
2023-05-14T14:51:53.509Z,100496.28
2023-05-14T14:54:20.406Z,100488.34
2023-05-14T14:56:49.298Z,100471.59
2023-05-14T14:59:36.839Z,100441.66
2023-05-14T15:02:39.374Z,100472.50
2023-05-14T15:05:19.217Z,100457.50
2023-05-14T15:07:46.068Z,100487.47
2023-05-14T15:10:12.997Z,100499.81
2023-05-14T15:12:39.964Z,100491.81
2023-05-14T15:15:07.934Z,100528.00
2023-05-14T15:17:35.061Z,100490.81
2023-05-14T15:20:02.324Z,100451.13
2023-05-14T15:22:29.615Z,100497.00
2023-05-14T15:24:56.466Z,100472.22
2023-05-14T15:27:23.424Z,100484.63
2023-05-14T15:29:50.333Z,100426.34
2023-05-14T15:32:18.006Z,100476.59
2023-05-14T15:34:45.279Z,100444.78
2023-05-14T15:37:12.296Z,100474.66
2023-05-14T15:39:39.184Z,100459.47
2023-05-14T15:42:27.161Z,100489.38
2023-05-14T15:45:27.755Z,100520.19
2023-05-14T15:48:08.505Z,100491.94
2023-05-14T15:50:35.689Z,100535.00
2023-05-14T15:53:02.662Z,100456.31
2023-05-14T15:55:30.132Z,100465.06
2023-05-14T15:58:19.274Z,100414.81
2023-05-14T16:01:19.890Z,100469.06
2023-05-14T16:04:20.773Z,100523.22
2023-05-14T16:07:08.101Z,100508.88
2023-05-14T16:09:37.056Z,100472.66
2023-05-14T16:12:05.652Z,100528.44
2023-05-14T16:14:36.294Z,100512.47
2023-05-14T16:17:03.587Z,100516.78
2023-05-14T16:19:31.321Z,100492.72
2023-05-14T16:21:58.633Z,100492.97
2023-05-14T16:24:25.978Z,100535.94
2023-05-14T16:26:53.838Z,100486.47
2023-05-14T16:29:40.787Z,100465.91
2023-05-14T16:32:35.903Z,100456.97
2023-05-14T16:35:03.123Z,100508.22
2023-05-14T16:37:31.734Z,100516.44
2023-05-14T16:40:18.774Z,100479.25
2023-05-14T16:43:19.764Z,100464.81
2023-05-14T16:46:01.136Z,100550.53
2023-05-14T16:48:28.561Z,100554.69
2023-05-14T16:50:56.764Z,100560.00
2023-05-14T16:53:23.636Z,100544.31
2023-05-14T16:55:51.664Z,100531.63
2023-05-14T16:58:39.122Z,100540.44
2023-05-14T17:01:39.864Z,100541.38
2023-05-14T17:04:44.845Z,100488.69
2023-05-14T17:07:25.246Z,100533.53
2023-05-14T17:09:52.255Z,100508.91
2023-05-14T17:12:19.241Z,100469.06
2023-05-14T17:14:47.680Z,100399.75
2023-05-14T17:17:14.775Z,100523.69
2023-05-14T17:19:42.839Z,100465.81
2023-05-14T17:22:09.908Z,100519.38
2023-05-14T17:24:39.567Z,100519.06
2023-05-14T17:27:07.965Z,100407.84
2023-05-14T17:29:34.968Z,100532.59
2023-05-14T17:32:03.623Z,100486.56
2023-05-14T17:34:52.875Z,100528.78
2023-05-14T17:37:33.449Z,100438.53
2023-05-14T17:40:21.844Z,100513.41
2023-05-14T17:43:10.208Z,100501.88
2023-05-14T17:45:50.186Z,100379.69
2023-05-14T17:48:20.978Z,100536.47
2023-05-14T17:50:48.374Z,100463.91
2023-05-14T17:53:16.300Z,100428.63
2023-05-14T17:55:43.937Z,100505.22
2023-05-14T17:58:14.329Z,100543.13
2023-05-14T18:01:01.875Z,100552.25
2023-05-14T18:04:03.387Z,100504.38
2023-05-14T18:06:45.930Z,100540.81
2023-05-14T18:09:14.198Z,100461.59
2023-05-14T18:11:42.213Z,100449.38
2023-05-14T18:14:09.354Z,100528.72
2023-05-14T18:16:38.657Z,100478.41
2023-05-14T18:19:05.974Z,100403.13
2023-05-14T18:21:34.029Z,100537.63
2023-05-14T18:24:01.274Z,100480.97
2023-05-14T18:26:48.921Z,100519.88
2023-05-14T18:29:51.463Z,100427.72
2023-05-14T18:32:31.714Z,100466.44
2023-05-14T18:34:58.779Z,100483.69
2023-05-14T18:37:28.962Z,100368.75
2023-05-14T18:39:56.553Z,100367.22
2023-05-14T18:42:23.536Z,100516.97
2023-05-14T18:44:51.726Z,100496.53
2023-05-14T18:47:19.255Z,100546.88
2023-05-14T18:49:48.125Z,100518.06
2023-05-14T18:52:15.619Z,100520.00
2023-05-14T18:55:02.938Z,100512.88
2023-05-14T18:57:43.567Z,100363.94
2023-05-14T19:00:31.004Z,100541.56
2023-05-14T19:03:11.681Z,100553.16
2023-05-14T19:05:38.818Z,100496.16
2023-05-14T19:08:06.379Z,100509.25
2023-05-14T19:10:34.992Z,100529.75
2023-05-14T19:13:02.641Z,100575.66
2023-05-14T19:15:29.725Z,100502.31
2023-05-14T19:17:56.804Z,100574.91
2023-05-14T19:20:23.852Z,100595.44
2023-05-14T19:23:11.084Z,100505.69
2023-05-14T19:26:14.409Z,100547.22
2023-05-14T19:29:00.643Z,100570.09
2023-05-14T19:31:28.222Z,100602.16
2023-05-14T19:33:55.758Z,100472.25
2023-05-14T19:36:22.914Z,100603.78
2023-05-14T19:38:50.746Z,100635.66
2023-05-14T19:41:17.992Z,100593.72
2023-05-14T19:43:45.423Z,100578.81
2023-05-14T19:46:13.386Z,100598.25
2023-05-14T19:48:41.467Z,100650.56
2023-05-14T19:51:08.757Z,100646.34
2023-05-14T19:53:57.081Z,100668.25
2023-05-14T19:56:38.657Z,100565.59
2023-05-14T19:59:05.825Z,100610.06
2023-05-14T20:01:53.092Z,100575.56
2023-05-14T20:04:34.569Z,100618.22
2023-05-14T20:07:03.837Z,100635.00
2023-05-14T20:09:30.885Z,100514.22
2023-05-14T20:11:57.921Z,100619.94
2023-05-14T20:14:25.166Z,100615.66
2023-05-14T20:16:53.289Z,100643.44
2023-05-14T20:19:41.187Z,100617.44
2023-05-14T20:22:22.193Z,100660.34
2023-05-14T20:24:50.064Z,100654.19
2023-05-14T20:27:17.469Z,100639.09
2023-05-14T20:29:46.998Z,100510.50
2023-05-14T20:32:15.706Z,100581.50
2023-05-14T20:34:42.665Z,100601.16
2023-05-14T20:37:10.305Z,100560.25
2023-05-14T20:39:37.570Z,100640.25
2023-05-14T20:42:05.718Z,100612.00
2023-05-14T20:44:32.743Z,100575.81
2023-05-14T20:46:59.897Z,100551.22
2023-05-14T20:49:27.884Z,100624.03
2023-05-14T20:51:55.220Z,100602.28
2023-05-14T20:54:22.052Z,100585.00
2023-05-14T20:56:48.984Z,100573.47
2023-05-14T20:59:35.960Z,100599.06
2023-05-14T21:02:37.143Z,100560.19
2023-05-14T21:05:37.952Z,100549.69
2023-05-14T21:08:18.687Z,100540.03
2023-05-14T21:10:45.580Z,100616.44
2023-05-14T21:13:32.946Z,100578.66
2023-05-14T21:16:13.525Z,100612.06
2023-05-14T21:19:00.994Z,100543.22
2023-05-14T21:21:41.703Z,100599.31
2023-05-14T21:24:08.903Z,100500.22
2023-05-14T21:26:37.307Z,100576.53
2023-05-14T21:29:04.560Z,100601.66
2023-05-14T21:31:31.469Z,100569.41
2023-05-14T21:33:58.603Z,100571.53
2023-05-14T21:36:26.114Z,100618.31
2023-05-14T21:38:53.946Z,100619.13
2023-05-14T21:41:21.763Z,100582.88
2023-05-14T21:43:48.670Z,100601.84
2023-05-14T21:46:16.457Z,100540.88
2023-05-14T21:48:43.879Z,100595.25
2023-05-14T21:51:12.306Z,100539.28
2023-05-14T21:53:39.260Z,100575.31
2023-05-14T21:56:07.192Z,100587.69
2023-05-14T21:58:35.072Z,100513.13
2023-05-14T22:01:02.833Z,100504.84
2023-05-14T22:03:30.071Z,100537.00
2023-05-14T22:05:57.592Z,100418.78
2023-05-14T22:08:45.712Z,100533.97
2023-05-14T22:11:46.027Z,100540.97
2023-05-14T22:14:29.497Z,100536.75
2023-05-14T22:16:57.697Z,100592.59
2023-05-14T22:19:25.891Z,100537.81
2023-05-14T22:21:52.962Z,100574.28
2023-05-14T22:24:19.834Z,100579.66
2023-05-14T22:27:07.005Z,100485.09
2023-05-14T22:29:47.560Z,100544.47
2023-05-14T22:32:14.539Z,100533.97
2023-05-14T22:34:41.638Z,100521.59
2023-05-14T22:37:09.002Z,100560.78
2023-05-14T22:39:36.725Z,100489.75
2023-05-14T22:42:03.850Z,100563.28
2023-05-14T22:44:31.768Z,100524.44
2023-05-14T22:46:59.421Z,100524.31
2023-05-14T22:49:26.565Z,100491.34
2023-05-14T22:51:54.359Z,100534.63
2023-05-14T22:54:21.328Z,100530.88
2023-05-14T22:56:48.354Z,100569.25
2023-05-14T22:59:15.272Z,100553.25
2023-05-14T23:02:16.075Z,100516.06
2023-05-14T23:05:17.001Z,100554.59
2023-05-14T23:07:57.715Z,100541.53
2023-05-14T23:10:26.855Z,100570.13
2023-05-14T23:12:53.760Z,100557.75
2023-05-14T23:15:20.789Z,100569.84
2023-05-14T23:17:47.708Z,100554.44
2023-05-14T23:20:15.039Z,100500.38
2023-05-14T23:22:41.988Z,100534.50
2023-05-14T23:25:09.473Z,100493.06
2023-05-14T23:27:57.186Z,100541.03
2023-05-14T23:30:58.001Z,100543.22
2023-05-14T23:33:39.882Z,100547.50
2023-05-14T23:36:07.317Z,100501.97
2023-05-14T23:38:34.385Z,100468.53
2023-05-14T23:41:01.228Z,100516.53
2023-05-14T23:43:28.248Z,100534.13
2023-05-14T23:45:55.368Z,100500.69
2023-05-14T23:48:22.330Z,100493.84
2023-05-14T23:50:49.175Z,100440.09
2023-05-14T23:53:16.310Z,100514.59
2023-05-14T23:55:43.225Z,100449.59
2023-05-14T23:58:30.055Z,100384.38
